Home   Weather   USA   Cleburne   Past weeks
Flag for USA

Past Weather in Cleburne, Texas, USA — Yesterday and Last 2 Weeks

Currently: 82 °F. Overcast. (Weather station: Cleburne Municipal Airport, USA). See more current weather

Past Weather in Cleburne — Graph

°F

Cleburne Temperature Yesterday

Maximum temperature yesterday: 91 °F (at 2:55 pm)
Minimum temperature yesterday: 73 °F (at 4:35 am)
Average temperature yesterday: 82 °F

High & Low Weather Summary for the Past Weeks

 TemperatureHumidityPressure
High100 °F (Jul 16, 2:55 pm)100% (Jul 6, 5:15 am)30.20 "Hg (Jul 6, 5:15 am)
Low68 °F (Jul 6, 5:15 am)26% (Jul 9, 3:55 pm)29.83 "Hg (Jul 7, 5:15 pm)
Average84 °F66%30.02 "Hg
* Reported Jul 5 10:15 pm — Jul 20 10:15 pm, Cleburne. Weather by CustomWeather, © 2024

Note: Actual official high and low records may vary slightly from our data, if they occured in-between our weather recording intervals... More about our weather records

Cleburne Weather History for the Previous 24 Hours

Scroll right to see more
 ConditionsComfort  
Time TempWeatherWind HumidityBarometerVisibility
10:15 pm
Sat, Jul 20
82 °FPassing clouds.9 mph51%30.03 "Hg10 mi
9:35 pm84 °FClear.10 mph45%30.02 "Hg10 mi
9:15 pm84 °FClear.12 mph45%30.01 "Hg10 mi
8:55 pm86 °FClear.10 mph43%30.01 "Hg10 mi
8:35 pm86 °FClear.14 mph43%30.00 "Hg10 mi
8:15 pm88 °FSunny.12 mph40%30.00 "Hg10 mi
7:55 pm88 °FSunny.12 mph40%29.99 "Hg10 mi
7:15 pm91 °FSunny.15 mph34%29.98 "Hg10 mi
6:55 pm91 °FSunny.10 mph34%29.99 "Hg10 mi
6:35 pm93 °FSunny.12 mph34%29.98 "Hg10 mi
6:15 pm93 °FSunny.9 mph34%29.99 "Hg10 mi
5:35 pm93 °FSunny.7 mph34%30.00 "Hg10 mi
5:15 pm95 °FPassing clouds.7 mph34%30.00 "Hg10 mi
4:55 pm91 °FPassing clouds.7 mph38%30.01 "Hg10 mi
4:35 pm93 °FSunny.9 mph36%30.01 "Hg10 mi
4:15 pm93 °FSunny.9 mph36%30.02 "Hg10 mi
3:55 pm93 °FSunny.No wind36%30.02 "Hg10 mi
2:15 pm91 °FPassing clouds.12 mph41%30.05 "Hg10 mi
1:55 pm88 °FPassing clouds.6 mph46%30.06 "Hg10 mi
1:35 pm90 °FSunny.8 mph43%30.06 "Hg10 mi
1:15 pm90 °FSunny.3 mph43%30.07 "Hg10 mi
12:35 pm88 °FScattered clouds.7 mph49%30.08 "Hg10 mi
12:15 pm88 °FPassing clouds.9 mph49%30.09 "Hg10 mi
11:35 am86 °FSunny.6 mph49%30.10 "Hg10 mi
10:55 am84 °FSunny.7 mph51%30.10 "Hg10 mi
10:35 am84 °FSunny.6 mph55%30.10 "Hg10 mi
10:15 am81 °FSunny.8 mph62%30.10 "Hg10 mi
9:55 am79 °FSunny.9 mph65%30.10 "Hg10 mi
9:35 am79 °FSunny.12 mph65%30.10 "Hg10 mi
8:55 am77 °FSunny.5 mph69%30.09 "Hg10 mi
7:55 am73 °FSunny.5 mph78%30.08 "Hg10 mi
7:35 am72 °FSunny.6 mph83%30.08 "Hg10 mi
7:15 am72 °FSunny.6 mph83%30.07 "Hg10 mi
6:55 am70 °FSunny.5 mph83%30.07 "Hg10 mi
6:35 am70 °FClear.No wind83%30.07 "Hg10 mi
6:15 am70 °FClear.No wind83%30.07 "Hg10 mi
5:55 am70 °FClear.5 mph83%30.07 "Hg10 mi
5:35 am70 °FClear.5 mph83%30.06 "Hg10 mi
5:15 am70 °FClear.7 mph83%30.06 "Hg10 mi
4:55 am70 °FClear.5 mph83%30.05 "Hg10 mi
4:35 am72 °FClear.3 mph78%30.06 "Hg10 mi
4:15 am72 °FClear.3 mph78%30.06 "Hg10 mi
3:35 am72 °FClear.5 mph78%30.06 "Hg10 mi
2:35 am72 °FClear.6 mph78%30.05 "Hg10 mi
2:15 am73 °FClear.5 mph74%30.05 "Hg10 mi
1:55 am73 °FClear.7 mph69%30.04 "Hg10 mi
1:35 am73 °FClear.7 mph69%30.04 "Hg10 mi
1:15 am73 °FClear.6 mph69%30.05 "Hg10 mi
12:55 am73 °FClear.6 mph69%30.05 "Hg10 mi
12:35 am75 °FClear.6 mph65%30.06 "Hg10 mi
12:15 am75 °FClear.7 mph65%30.06 "Hg10 mi
11:55 pm
Fri, Jul 19
77 °FClear.7 mph61%30.06 "Hg10 mi
11:35 pm77 °FClear.7 mph61%30.06 "Hg10 mi
11:15 pm77 °FClear.8 mph61%30.06 "Hg10 mi
Weather by CustomWeather, © 2024

See weather overview